Time;durP1;ratioP1;P1;durP2;ratioP2;P2;SDS_P1;SDS_P2;PMS_P1;PMS_P2;Temp;Humidity;BMP_temperature;BMP_pressure;BME280_temperature;BME280_humidity;BME280_pressure;Samples;Min_cycle;Max_cycle;Signal;HPM_P1;HPM_P2
2022/09/22 00:00:06;;;;;;;;;;;;;;;26.18;42.32;94679.56;5027787;28;7240;-60
2022/09/22 00:03:00;;;;;;;;;;;;;;;26.16;41.90;94674.53;5041437;28;7372;-60
2022/09/22 00:05:28;;;;;;;;;;;;;;;26.12;42.02;94671.28;4973781;28;9710;-59
2022/09/22 00:08:31;;;;;;;;;;;;;;;26.15;41.56;94673.03;4979017;28;7426;-61
2022/09/22 00:11:12;;;;;;;;;;;;;;;26.14;42.01;94665.28;4893765;29;9363;-60
2022/09/22 00:13:39;;;;;;;;;;;;;;;26.12;41.82;94665.78;4877422;29;8008;-60
2022/09/22 00:16:10;;;;;;;;;;;;;;;26.10;42.00;94668.28;4892061;29;7313;-60
2022/09/22 00:18:43;;;;;;;;;;;;;;;26.09;42.03;94660.53;4876516;29;7298;-60
2022/09/22 00:21:27;;;;;;;;;;;;;;;26.05;42.40;94666.31;4890818;29;7284;-60
2022/09/22 00:23:54;;;;;;;;;;;;;;;26.02;41.85;94664.53;4892980;29;7224;-60
2022/09/22 00:26:37;;;;;;;;;;;;;;;26.04;41.92;94670.31;4890109;29;8939;-60
2022/09/22 00:29:08;;;;;;;;;;;;;;;26.05;42.54;94660.78;4891953;29;7223;-60
2022/09/22 00:31:37;;;;;;;;;;;;;;;26.07;42.17;94652.00;4892482;29;7234;-60
2022/09/22 00:34:25;;;;;;;;;;;;;;;26.03;42.51;94655.00;4883052;29;7135;-61
2022/09/22 00:37:03;;;;;;;;;;;;;;;26.04;42.16;94669.53;4894846;29;7150;-61
2022/09/22 00:43:21;;;;;;;;;;;;;;;26.01;41.81;94654.75;4913792;29;9120;-60
2022/09/22 00:45:53;;;;;;;;;;;;;;;26.00;41.98;94650.53;4980555;28;9086;-60
2022/09/22 00:48:23;;;;;;;;;;;;;;;26.02;42.50;94653.53;4985689;28;7190;-61
2022/09/22 00:50:53;;;;;;;;;;;;;;;26.02;42.24;94653.53;4997759;28;9045;-61
2022/09/22 00:53:24;;;;;;;;;;;;;;;25.98;41.83;94658.56;5001005;28;6982;-60
2022/09/22 00:56:04;;;;;;;;;;;;;;;25.99;41.78;94654.53;4996726;28;7207;-60
2022/09/22 00:58:52;;;;;;;;;;;;;;;25.93;42.19;94642.78;4987141;28;8418;-60
2022/09/22 01:01:21;;;;;;;;;;;;;;;25.92;42.50;94638.53;5003092;28;7214;-60
2022/09/22 01:03:55;;;;;;;;;;;;;;;25.96;42.28;94641.78;5000128;28;8979;-61
2022/09/22 01:06:27;;;;;;;;;;;;;;;25.96;42.05;94635.50;4998521;28;6955;-60
2022/09/22 01:09:25;;;;;;;;;;;;;;;25.95;42.53;94640.25;4987102;28;9349;-60
2022/09/22 01:12:03;;;;;;;;;;;;;;;25.95;41.69;94637.50;4957395;28;7368;-60
2022/09/22 01:15:03;;;;;;;;;;;;;;;25.94;41.75;94638.78;4955694;28;6985;-60
2022/09/22 01:17:55;;;;;;;;;;;;;;;25.91;42.32;94630.75;4940750;28;9097;-60
2022/09/22 01:20:52;;;;;;;;;;;;;;;25.90;41.67;94634.78;4949622;28;7163;-60
2022/09/22 01:23:33;;;;;;;;;;;;;;;25.92;42.32;94629.50;4947257;28;10004;-60
2022/09/22 01:26:35;;;;;;;;;;;;;;;25.94;42.12;94629.75;4957604;28;9107;-60
2022/09/22 01:29:24;;;;;;;;;;;;;;;25.95;42.32;94634.75;4943405;28;8907;-60
2022/09/22 01:32:25;;;;;;;;;;;;;;;25.92;41.54;94630.28;4957283;28;9866;-60
2022/09/22 01:35:13;;;;;;;;;;;;;;;25.88;42.06;94623.53;4950535;28;7493;-60
2022/09/22 01:37:48;;;;;;;;;;;;;;;25.86;41.66;94615.00;4957915;28;8965;-60
2022/09/22 01:40:25;;;;;;;;;;;;;;;25.87;42.12;94622.00;4957724;28;7034;-60
2022/09/22 01:43:26;;;;;;;;;;;;;;;25.86;42.39;94610.22;4955827;28;7290;-60
2022/09/22 01:45:53;;;;;;;;;;;;;;;25.89;41.77;94611.97;4966927;28;9613;-60
2022/09/22 01:48:25;;;;;;;;;;;;;;;25.91;42.20;94609.47;5020678;28;9129;-59
2022/09/22 01:51:17;;;;;;;;;;;;;;;25.91;41.96;94611.47;5042526;28;7270;-60
2022/09/22 01:53:52;;;;;;;;;;;;;;;25.90;41.74;94605.19;5046441;28;7001;-60
2022/09/22 01:56:35;;;;;;;;;;;;;;;25.89;41.85;94611.22;5031227;28;7257;-60
2022/09/22 01:59:05;;;;;;;;;;;;;;;25.90;41.63;94609.97;5046208;28;7390;-60
2022/09/22 02:01:58;;;;;;;;;;;;;;;25.87;41.81;94595.22;5054424;28;7098;-60
2022/09/22 02:04:32;;;;;;;;;;;;;;;25.87;41.69;94595.22;5043773;28;7195;-61
2022/09/22 02:07:09;;;;;;;;;;;;;;;25.88;42.27;94593.22;5037116;28;7662;-60
2022/09/22 02:09:46;;;;;;;;;;;;;;;25.87;41.97;94599.97;5045721;28;7289;-60
2022/09/22 02:12:18;;;;;;;;;;;;;;;25.84;41.52;94595.47;5060762;28;7243;-60
2022/09/22 02:14:55;;;;;;;;;;;;;;;25.85;42.00;94603.22;5060484;28;9466;-61
2022/09/22 02:17:25;;;;;;;;;;;;;;;25.83;41.91;94591.97;5028541;28;10253;-60
2022/09/22 02:20:04;;;;;;;;;;;;;;;25.79;41.82;94599.75;5059046;28;7411;-60
2022/09/22 02:22:34;;;;;;;;;;;;;;;25.78;42.15;94598.25;5063339;28;7538;-60
2022/09/22 02:25:05;;;;;;;;;;;;;;;25.78;42.19;94603.00;5046673;28;10113;-60
2022/09/22 02:27:43;;;;;;;;;;;;;;;25.81;42.22;94590.97;5029912;28;7316;-60
2022/09/22 02:30:11;;;;;;;;;;;;;;;25.81;41.69;94590.97;5025383;28;7340;-61
2022/09/22 02:32:45;;;;;;;;;;;;;;;25.83;41.63;94588.47;5040998;28;9568;-60
2022/09/22 02:35:14;;;;;;;;;;;;;;;25.82;41.53;94582.19;5059853;28;7236;-61
2022/09/22 02:38:11;;;;;;;;;;;;;;;25.81;42.26;94597.25;5043307;28;7174;-61
2022/09/22 02:40:58;;;;;;;;;;;;;;;25.81;41.94;94590.97;5040593;28;8193;-60
2022/09/22 02:43:48;;;;;;;;;;;;;;;25.81;41.29;94585.47;5056130;28;7286;-60
2022/09/22 02:46:29;;;;;;;;;;;;;;;25.81;41.46;94583.47;5044600;28;7090;-60
2022/09/22 02:49:12;;;;;;;;;;;;;;;25.81;41.83;94585.47;5057933;28;7079;-60
2022/09/22 02:51:40;;;;;;;;;;;;;;;25.79;41.88;94582.47;5044043;28;8907;-61
2022/09/22 02:54:24;;;;;;;;;;;;;;;25.78;41.54;94589.97;5033609;28;9069;-60
2022/09/22 02:56:53;;;;;;;;;;;;;;;25.81;42.02;94596.50;5043446;28;7039;-61
2022/09/22 02:59:23;;;;;;;;;;;;;;;25.78;41.99;94592.75;5050901;28;8271;-60
2022/09/22 03:01:54;;;;;;;;;;;;;;;25.78;41.72;94595.50;5027428;28;7149;-61
2022/09/22 03:04:22;;;;;;;;;;;;;;;25.77;41.95;94591.25;5034428;28;6981;-61
2022/09/22 03:06:52;;;;;;;;;;;;;;;25.78;41.85;94586.47;5029410;28;8413;-60
2022/09/22 03:09:18;;;;;;;;;;;;;;;25.77;41.36;94599.53;5030222;28;7595;-60
2022/09/22 03:12:11;;;;;;;;;;;;;;;25.76;41.23;94600.00;5061299;28;7898;-61
2022/09/22 03:14:37;;;;;;;;;;;;;;;25.77;41.29;94599.53;5030512;28;7660;-61
2022/09/22 03:17:22;;;;;;;;;;;;;;;25.77;41.57;94598.75;5040548;28;8689;-61
2022/09/22 03:19:49;;;;;;;;;;;;;;;25.76;41.32;94589.75;5042126;28;9448;-60
2022/09/22 03:22:15;;;;;;;;;;;;;;;25.75;41.39;94593.75;5026184;28;7148;-60
2022/09/22 03:24:46;;;;;;;;;;;;;;;25.76;41.74;94598.00;5023087;28;7248;-60
2022/09/22 03:27:19;;;;;;;;;;;;;;;25.74;41.91;94592.25;5040214;28;8590;-61
2022/09/22 03:29:48;;;;;;;;;;;;;;;25.76;41.40;94598.00;5033319;28;6972;-60
2022/09/22 03:32:26;;;;;;;;;;;;;;;25.74;41.75;94592.25;5042665;28;8971;-60
2022/09/22 03:35:27;;;;;;;;;;;;;;;25.76;41.86;94600.75;5036096;28;7755;-60
2022/09/22 03:37:54;;;;;;;;;;;;;;;25.74;41.79;94606.03;5000578;28;7309;-60
2022/09/22 03:40:33;;;;;;;;;;;;;;;25.72;41.35;94611.31;4987756;28;7199;-60
2022/09/22 03:43:18;;;;;;;;;;;;;;;25.74;41.58;94614.28;4992700;28;7185;-60
2022/09/22 03:45:44;;;;;;;;;;;;;;;25.73;41.86;94609.31;4989500;28;6979;-60
2022/09/22 03:48:12;;;;;;;;;;;;;;;25.74;41.19;94608.78;5002144;28;7970;-60
2022/09/22 03:50:38;;;;;;;;;;;;;;;25.73;41.02;94607.28;5001085;28;7017;-60
2022/09/22 03:53:04;;;;;;;;;;;;;;;25.71;41.24;94604.28;4990731;28;7895;-60
2022/09/22 03:55:41;;;;;;;;;;;;;;;25.72;41.20;94610.53;4997990;28;7010;-60
2022/09/22 03:58:20;;;;;;;;;;;;;;;25.72;40.95;94619.56;5013638;28;8774;-60
2022/09/22 04:00:47;;;;;;;;;;;;;;;25.71;41.07;94614.56;4999747;28;7980;-60
2022/09/22 04:03:15;;;;;;;;;;;;;;;25.69;41.27;94620.56;5018292;28;6958;-60
2022/09/22 04:05:48;;;;;;;;;;;;;;;25.70;41.62;94613.06;5021523;28;7229;-60
2022/09/22 04:08:24;;;;;;;;;;;;;;;25.70;41.17;94618.56;5020274;28;7088;-60
2022/09/22 04:10:56;;;;;;;;;;;;;;;25.69;41.30;94612.31;5035530;28;9385;-61
2022/09/22 04:13:22;;;;;;;;;;;;;;;25.68;41.14;94621.84;5063083;28;7123;-61
2022/09/22 04:15:59;;;;;;;;;;;;;;;25.68;41.38;94621.06;5059468;28;6960;-60
2022/09/22 04:18:33;;;;;;;;;;;;;;;25.68;41.27;94623.84;5052280;28;7123;-60
2022/09/22 04:21:00;;;;;;;;;;;;;;;25.66;41.02;94627.09;5054268;28;7002;-60
2022/09/22 04:23:36;;;;;;;;;;;;;;;25.66;41.05;94621.59;5042265;28;9313;-60
2022/09/22 04:26:33;;;;;;;;;;;;;;;25.65;41.65;94625.59;5063411;28;8436;-60
2022/09/22 04:28:59;;;;;;;;;;;;;;;25.64;41.56;94621.34;4966280;28;7841;-60
2022/09/22 04:31:37;;;;;;;;;;;;;;;25.64;41.69;94631.63;4967604;28;7079;-60
2022/09/22 04:34:22;;;;;;;;;;;;;;;25.60;40.78;94618.09;4966185;28;7391;-60
2022/09/22 04:36:49;;;;;;;;;;;;;;;25.60;40.75;94629.09;4961250;28;7243;-61
2022/09/22 04:39:32;;;;;;;;;;;;;;;25.58;41.52;94631.63;4952762;28;8624;-60
2022/09/22 04:41:58;;;;;;;;;;;;;;;25.55;41.12;94629.88;4964987;28;7183;-60
2022/09/22 04:44:24;;;;;;;;;;;;;;;25.56;41.36;94628.63;4978864;28;7325;-60
2022/09/22 04:46:50;;;;;;;;;;;;;;;25.55;40.98;94626.38;4963187;28;7393;-60
2022/09/22 04:49:20;;;;;;;;;;;;;;;25.52;43.62;94619.88;4966621;28;7306;-60
2022/09/22 04:51:48;;;;;;;;;;;;;;;25.54;42.21;94625.63;4970933;28;7001;-61
2022/09/22 04:54:15;;;;;;;;;;;;;;;25.55;41.42;94629.88;4966959;28;7332;-60
2022/09/22 04:56:44;;;;;;;;;;;;;;;25.56;42.10;94622.34;4968367;28;7180;-60
2022/09/22 04:59:10;;;;;;;;;;;;;;;25.55;41.75;94632.63;4948286;28;9041;-59
2022/09/22 05:01:37;;;;;;;;;;;;;;;25.53;42.12;94635.16;4961439;28;6979;-60
2022/09/22 05:04:05;;;;;;;;;;;;;;;25.51;41.96;94634.16;4964952;28;7072;-60
2022/09/22 05:06:33;;;;;;;;;;;;;;;25.49;41.88;94626.38;5052765;28;7421;-61
2022/09/22 05:09:04;;;;;;;;;;;;;;;25.52;42.11;94635.63;5056665;28;7798;-60
2022/09/22 05:11:33;;;;;;;;;;;;;;;25.52;40.97;94630.88;5061611;28;7484;-60
2022/09/22 05:14:08;;;;;;;;;;;;;;;25.50;41.37;94632.63;5061985;28;7275;-60
2022/09/22 05:16:37;;;;;;;;;;;;;;;25.51;41.47;94634.91;5080982;28;8879;-60
2022/09/22 05:19:12;;;;;;;;;;;;;;;25.50;41.47;94633.41;5049567;28;7271;-60
2022/09/22 05:21:39;;;;;;;;;;;;;;;25.51;42.00;94640.41;5050632;28;8874;-61
2022/09/22 05:24:19;;;;;;;;;;;;;;;25.50;42.19;94638.16;5061590;28;9010;-60
2022/09/22 05:26:44;;;;;;;;;;;;;;;25.51;41.95;94636.91;5064127;28;7213;-60
2022/09/22 05:29:10;;;;;;;;;;;;;;;25.50;41.16;94638.16;5055635;28;7106;-61
2022/09/22 05:31:36;;;;;;;;;;;;;;;25.46;41.63;94634.91;5068910;28;7220;-60
2022/09/22 05:34:13;;;;;;;;;;;;;;;25.46;41.66;94643.16;5050997;28;9227;-61
2022/09/22 05:36:44;;;;;;;;;;;;;;;25.47;41.77;94644.69;5064946;28;7576;-60
2022/09/22 05:39:12;;;;;;;;;;;;;;;25.47;41.84;94645.41;5051036;28;9266;-60
2022/09/22 05:41:48;;;;;;;;;;;;;;;25.46;41.45;94646.69;5051036;28;7281;-61
2022/09/22 05:44:17;;;;;;;;;;;;;;;25.48;41.24;94641.41;5051377;28;7261;-61
2022/09/22 05:46:45;;;;;;;;;;;;;;;25.48;41.39;94644.16;5063551;28;9065;-61
2022/09/22 05:49:13;;;;;;;;;;;;;;;25.46;42.01;94646.69;5046160;28;7547;-60
2022/09/22 05:51:42;;;;;;;;;;;;;;;25.46;41.77;94646.69;5059676;28;7315;-60
2022/09/22 05:54:10;;;;;;;;;;;;;;;25.45;41.40;94647.91;5045006;28;8332;-60
2022/09/22 05:56:38;;;;;;;;;;;;;;;25.43;41.73;94648.44;5059574;28;7308;-61
2022/09/22 05:59:04;;;;;;;;;;;;;;;25.43;41.66;94644.91;5067952;28;7506;-60
2022/09/22 06:01:30;;;;;;;;;;;;;;;25.43;42.26;94639.41;5077661;28;9083;-60
2022/09/22 06:03:58;;;;;;;;;;;;;;;25.42;42.20;94643.44;5064149;28;7326;-61
2022/09/22 06:06:24;;;;;;;;;;;;;;;25.43;42.08;94642.91;5060908;28;8625;-60
2022/09/22 06:08:55;;;;;;;;;;;;;;;25.41;42.19;94642.66;5062171;28;6846;-61
2022/09/22 06:11:39;;;;;;;;;;;;;;;25.42;42.33;94641.41;5045517;28;7139;-61
2022/09/22 06:14:05;;;;;;;;;;;;;;;25.40;42.30;94634.91;5052032;28;7036;-60
2022/09/22 06:16:35;;;;;;;;;;;;;;;25.41;42.11;94636.38;5045681;28;7162;-60
2022/09/22 06:19:01;;;;;;;;;;;;;;;25.40;42.44;94640.41;5060477;28;7120;-60
2022/09/22 06:21:30;;;;;;;;;;;;;;;25.38;41.72;94638.13;5043075;28;7409;-61
2022/09/22 06:23:56;;;;;;;;;;;;;;;25.39;42.62;94633.38;5078892;28;7989;-60
2022/09/22 06:26:24;;;;;;;;;;;;;;;25.40;42.50;94645.91;5056803;28;7161;-60
2022/09/22 06:28:50;;;;;;;;;;;;;;;25.38;42.00;94643.66;5059804;28;9333;-61
2022/09/22 06:31:23;;;;;;;;;;;;;;;25.39;42.79;94636.13;5053050;28;7555;-60
2022/09/22 06:33:52;;;;;;;;;;;;;;;25.40;42.56;94640.41;5064667;28;7063;-61
2022/09/22 06:36:26;;;;;;;;;;;;;;;25.39;42.14;94641.66;5053018;28;7076;-61
2022/09/22 06:39:03;;;;;;;;;;;;;;;25.38;41.75;94640.16;5048200;28;7084;-61
2022/09/22 06:41:32;;;;;;;;;;;;;;;25.38;42.37;94646.41;5065685;28;9091;-61
2022/09/22 06:43:59;;;;;;;;;;;;;;;25.38;42.19;94638.13;5066507;28;7262;-60
2022/09/22 06:46:33;;;;;;;;;;;;;;;25.38;42.19;94637.41;5067540;28;7451;-61
2022/09/22 06:48:59;;;;;;;;;;;;;;;25.39;41.96;94644.41;5037744;28;7427;-60
2022/09/22 06:51:33;;;;;;;;;;;;;;;25.39;41.95;94638.91;5028528;28;6852;-60
2022/09/22 06:54:04;;;;;;;;;;;;;;;25.38;42.29;94638.13;5024022;28;7254;-61
2022/09/22 06:56:36;;;;;;;;;;;;;;;25.37;42.54;94641.41;5041637;28;9053;-61
2022/09/22 06:59:17;;;;;;;;;;;;;;;25.35;41.82;94639.16;5040546;28;7120;-60
2022/09/22 07:01:55;;;;;;;;;;;;;;;25.37;42.14;94631.16;5045698;28;7241;-61
2022/09/22 07:04:22;;;;;;;;;;;;;;;25.37;41.95;94633.13;5036355;28;9456;-61
2022/09/22 07:06:50;;;;;;;;;;;;;;;25.38;42.44;94642.91;5034423;28;7376;-61
2022/09/22 07:09:22;;;;;;;;;;;;;;;25.38;42.34;94638.13;5025248;28;7073;-61
2022/09/22 07:11:52;;;;;;;;;;;;;;;25.37;42.60;94636.66;5025686;28;7023;-61
2022/09/22 07:14:21;;;;;;;;;;;;;;;25.37;42.19;94638.66;5025505;28;7467;-61
2022/09/22 07:16:51;;;;;;;;;;;;;;;25.36;42.54;94640.66;5042127;28;9066;-60
2022/09/22 07:19:20;;;;;;;;;;;;;;;25.34;42.47;94637.66;5038013;28;9374;-60
2022/09/22 07:21:55;;;;;;;;;;;;;;;25.35;41.97;94638.41;4995890;28;7546;-60
2022/09/22 07:24:22;;;;;;;;;;;;;;;25.36;42.58;94639.88;4994704;28;7056;-60
2022/09/22 07:26:50;;;;;;;;;;;;;;;25.34;42.81;94636.88;4994086;28;7168;-60
2022/09/22 07:29:24;;;;;;;;;;;;;;;25.34;42.61;94636.88;4998216;28;7316;-60
2022/09/22 07:31:57;;;;;;;;;;;;;;;25.33;42.58;94633.41;5016385;28;7547;-60
2022/09/22 07:34:35;;;;;;;;;;;;;;;25.33;42.22;94632.66;4986788;28;7149;-60
2022/09/22 07:37:03;;;;;;;;;;;;;;;25.33;42.53;94633.41;4987198;28;9062;-60
2022/09/22 07:39:31;;;;;;;;;;;;;;;25.33;42.42;94627.91;5015550;28;9088;-61
2022/09/22 07:42:03;;;;;;;;;;;;;;;25.32;42.54;94633.88;5015912;28;8726;-60
2022/09/22 07:47:14;;;;;;;;;;;;;;;25.30;42.25;94634.41;5011108;28;6951;-60
2022/09/22 07:49:43;;;;;;;;;;;;;;;25.31;42.86;94635.16;5025259;28;6986;-60
2022/09/22 07:52:12;;;;;;;;;;;;;;;25.32;42.73;94639.41;5010366;28;6970;-60
2022/09/22 07:54:48;;;;;;;;;;;;;;;25.32;42.48;94645.66;5027057;28;7005;-60
2022/09/22 07:57:16;;;;;;;;;;;;;;;25.31;42.35;94644.19;5029197;28;7538;-60
2022/09/22 07:59:44;;;;;;;;;;;;;;;25.31;42.32;94637.91;5043224;28;7067;-60
2022/09/22 08:02:11;;;;;;;;;;;;;;;25.30;42.13;94642.66;5028318;28;7280;-60
2022/09/22 08:04:49;;;;;;;;;;;;;;;25.30;42.39;94634.41;5027215;28;9805;-60
2022/09/22 08:07:28;;;;;;;;;;;;;;;25.33;42.14;94640.91;5054119;28;6959;-60
2022/09/22 08:10:01;;;;;;;;;;;;;;;25.34;41.95;94639.66;5040118;28;7535;-60
2022/09/22 08:12:37;;;;;;;;;;;;;;;25.34;42.69;94647.91;5040851;28;6980;-60
2022/09/22 08:15:10;;;;;;;;;;;;;;;25.35;41.74;94644.66;5019728;28;7104;-60
2022/09/22 08:17:42;;;;;;;;;;;;;;;25.34;42.12;94645.16;5055739;28;6940;-60
2022/09/22 08:20:12;;;;;;;;;;;;;;;25.35;42.06;94643.91;5045891;28;7152;-60
2022/09/22 08:23:00;;;;;;;;;;;;;;;25.31;41.91;94641.41;5024414;28;7039;-60
2022/09/22 08:25:30;;;;;;;;;;;;;;;25.32;41.97;94636.66;5023837;28;7002;-60
2022/09/22 08:28:04;;;;;;;;;;;;;;;25.31;42.00;94632.41;5020998;28;9144;-60
2022/09/22 08:30:44;;;;;;;;;;;;;;;25.32;41.98;94637.41;5039461;28;7048;-60
2022/09/22 08:33:16;;;;;;;;;;;;;;;25.29;41.99;94630.13;5035652;28;7174;-60
2022/09/22 08:35:57;;;;;;;;;;;;;;;25.29;42.44;94635.63;5057019;28;8901;-60
2022/09/22 08:38:27;;;;;;;;;;;;;;;25.29;42.39;94641.16;5056694;28;7325;-59
2022/09/22 08:41:27;;;;;;;;;;;;;;;25.29;41.93;94635.63;5043149;28;7367;-60
2022/09/22 08:43:56;;;;;;;;;;;;;;;25.28;42.10;94634.16;5062695;28;7457;-61
2022/09/22 08:46:29;;;;;;;;;;;;;;;25.29;42.16;94643.91;5059351;28;7646;-60
2022/09/22 08:51:54;;;;;;;;;;;;;;;25.30;42.32;94633.66;5040417;28;8008;-60
2022/09/22 08:54:26;;;;;;;;;;;;;;;25.30;42.84;94633.66;5055200;28;7126;-60
2022/09/22 08:57:01;;;;;;;;;;;;;;;25.34;42.45;94636.88;5030057;28;7406;-60
2022/09/22 08:59:54;;;;;;;;;;;;;;;25.32;42.57;94633.88;5059870;28;9123;-60
2022/09/22 09:02:31;;;;;;;;;;;;;;;25.32;42.66;94640.16;5038611;28;9022;-60
2022/09/22 09:05:35;;;;;;;;;;;;;;;25.30;42.62;94631.66;5032794;28;9290;-60
2022/09/22 09:08:26;;;;;;;;;;;;;;;25.30;42.74;94630.91;5062241;28;7107;-60
2022/09/22 09:11:06;;;;;;;;;;;;;;;25.29;42.35;94641.16;5043134;28;7268;-60
2022/09/22 09:13:47;;;;;;;;;;;;;;;25.29;42.45;94637.66;5056908;28;6963;-60
2022/09/22 09:16:33;;;;;;;;;;;;;;;25.29;41.75;94640.41;5056003;28;7219;-60
2022/09/22 09:19:12;;;;;;;;;;;;;;;25.30;42.71;94641.91;5063482;28;7524;-60
2022/09/22 09:22:04;;;;;;;;;;;;;;;25.30;42.55;94637.16;5030484;28;7132;-61
2022/09/22 09:24:39;;;;;;;;;;;;;;;25.32;41.98;94639.41;5032179;28;7502;-60
2022/09/22 09:27:39;;;;;;;;;;;;;;;25.34;42.36;94639.66;5047288;28;7826;-61
2022/09/22 09:30:20;;;;;;;;;;;;;;;25.34;41.96;94643.16;5002825;28;9119;-60
2022/09/22 09:33:00;;;;;;;;;;;;;;;25.34;42.64;94642.41;4998581;28;7290;-61
2022/09/22 09:35:36;;;;;;;;;;;;;;;25.34;42.01;94651.41;5000614;28;8378;-61
2022/09/22 09:38:16;;;;;;;;;;;;;;;25.36;42.36;94643.41;4999686;28;9617;-60
2022/09/22 09:40:56;;;;;;;;;;;;;;;25.36;42.61;94642.63;4987480;28;7040;-61
2022/09/22 09:43:36;;;;;;;;;;;;;;;25.36;42.24;94639.88;5000096;28;7312;-60
2022/09/22 09:46:08;;;;;;;;;;;;;;;25.37;42.52;94644.91;5006672;28;8958;-61
2022/09/22 09:49:08;;;;;;;;;;;;;;;25.40;41.59;94640.41;5015714;28;7236;-61
2022/09/22 09:51:38;;;;;;;;;;;;;;;25.40;42.09;94643.16;5024235;28;8245;-60
2022/09/22 09:54:08;;;;;;;;;;;;;;;25.39;42.50;94634.13;5011508;28;7697;-61
2022/09/22 09:57:28;;;;;;;;;;;;;;;25.40;41.68;94635.63;5022908;28;7066;-60
2022/09/22 10:00:31;;;;;;;;;;;;;;;25.40;41.67;94629.41;5025208;28;9436;-60
2022/09/22 10:03:15;;;;;;;;;;;;;;;25.41;42.01;94625.38;5003794;28;7034;-60
2022/09/22 10:05:59;;;;;;;;;;;;;;;25.41;41.89;94622.63;5010938;28;8648;-60
2022/09/22 10:08:26;;;;;;;;;;;;;;;25.41;41.94;94631.63;5045517;28;7171;-59
2022/09/22 10:10:58;;;;;;;;;;;;;;;25.40;41.71;94616.34;5050085;28;10817;-60
2022/09/22 10:13:53;;;;;;;;;;;;;;;25.41;41.59;94617.09;5060129;28;7112;-60
2022/09/22 10:16:27;;;;;;;;;;;;;;;25.40;42.20;94615.63;5056109;28;7247;-60
2022/09/22 10:19:19;;;;;;;;;;;;;;;25.42;41.94;94618.66;5034996;28;7207;-60
2022/09/22 10:21:44;;;;;;;;;;;;;;;25.41;42.57;94611.59;5033799;28;7279;-59
2022/09/22 10:24:30;;;;;;;;;;;;;;;25.42;41.71;94619.38;5054245;28;7460;-59
2022/09/22 10:27:32;;;;;;;;;;;;;;;25.44;42.13;94613.38;5059152;28;9525;-59
2022/09/22 10:30:20;;;;;;;;;;;;;;;25.46;41.56;94607.38;5002817;28;7478;-59
2022/09/22 10:33:07;;;;;;;;;;;;;;;25.44;42.55;94605.13;5020730;28;8488;-60
2022/09/22 10:36:08;;;;;;;;;;;;;;;25.44;41.97;94607.88;5015219;28;7728;-59
2022/09/22 10:38:42;;;;;;;;;;;;;;;25.41;42.96;94598.59;5020048;28;7197;-59
2022/09/22 10:41:25;;;;;;;;;;;;;;;25.40;42.80;94601.84;4997972;28;7263;-59
2022/09/22 10:44:10;;;;;;;;;;;;;;;25.40;42.93;94602.59;5000598;28;7626;-59
2022/09/22 10:47:02;;;;;;;;;;;;;;;25.41;42.22;94609.59;5001530;28;7772;-59
2022/09/22 10:49:27;;;;;;;;;;;;;;;25.43;42.92;94595.34;5016899;28;7036;-59
2022/09/22 10:52:09;;;;;;;;;;;;;;;25.43;42.22;94604.38;5026475;28;7223;-59
2022/09/22 10:54:56;;;;;;;;;;;;;;;25.43;42.62;94598.09;4996275;28;8234;-60
2022/09/22 10:57:49;;;;;;;;;;;;;;;25.44;43.14;94599.63;4996761;28;7941;-59
2022/09/22 11:00:26;;;;;;;;;;;;;;;25.44;42.79;94594.13;5012171;28;7982;-59
2022/09/22 11:03:51;;;;;;;;;;;;;;;25.46;42.72;94593.59;5013530;28;7236;-59
2022/09/22 11:12:45;;;;;;;;;;;;;;;25.46;42.16;94588.09;4965274;28;6990;-59
2022/09/22 11:15:56;;;;;;;;;;;;;;;25.47;42.03;94598.59;4966860;28;6995;-59
2022/09/22 11:19:00;;;;;;;;;;;;;;;25.48;41.96;94591.84;4914495;29;7420;-59
2022/09/22 11:22:19;;;;;;;;;;;;;;;25.49;42.02;94593.31;5079544;27;6704;-60
2022/09/22 11:25:04;;;;;;;;;;;;;;;25.48;42.75;94586.34;5054379;28;9314;-61
2022/09/22 11:27:42;;;;;;;;;;;;;;;25.52;42.14;94588.81;5060760;28;9256;-60
2022/09/22 11:30:23;;;;;;;;;;;;;;;25.52;42.10;94592.31;5052369;28;9394;-60
2022/09/22 11:33:29;;;;;;;;;;;;;;;25.55;41.84;94594.09;5056240;28;6922;-60
2022/09/22 11:36:00;;;;;;;;;;;;;;;25.56;42.83;94579.03;5003788;28;7145;-61
2022/09/22 11:39:20;;;;;;;;;;;;;;;25.57;42.62;94585.31;4987561;28;7789;-60
2022/09/22 11:42:19;;;;;;;;;;;;;;;25.59;41.81;94589.06;4979836;28;7597;-61
2022/09/22 11:45:07;;;;;;;;;;;;;;;25.60;41.74;94587.78;4968407;28;7887;-61
2022/09/22 11:47:53;;;;;;;;;;;;;;;25.62;41.96;94590.78;4983609;28;7250;-61
2022/09/22 11:50:41;;;;;;;;;;;;;;;25.64;41.68;94587.53;4967777;28;9467;-61
2022/09/22 11:53:47;;;;;;;;;;;;;;;25.65;41.92;94573.25;4983766;28;7035;-61
2022/09/22 11:56:48;;;;;;;;;;;;;;;25.67;42.49;94575.50;4968906;28;9426;-60
2022/09/22 11:59:57;;;;;;;;;;;;;;;25.67;42.19;94579.00;4899172;29;9051;-61
2022/09/22 12:02:45;;;;;;;;;;;;;;;25.68;42.42;94574.25;4894257;29;7269;-61
2022/09/22 12:05:25;;;;;;;;;;;;;;;25.70;42.14;94577.25;4900563;29;7884;-61
2022/09/22 12:07:58;;;;;;;;;;;;;;;25.69;41.36;94570.97;4913084;29;7250;-60
2022/09/22 12:10:38;;;;;;;;;;;;;;;25.70;42.12;94566.97;4922825;28;7115;-60
2022/09/22 12:13:12;;;;;;;;;;;;;;;25.71;42.23;94562.94;4926089;28;7265;-60
2022/09/22 12:16:04;;;;;;;;;;;;;;;25.74;42.18;94561.19;4947401;28;7212;-61
2022/09/22 12:18:55;;;;;;;;;;;;;;;25.76;42.10;94561.44;4977244;28;7655;-60
2022/09/22 12:21:55;;;;;;;;;;;;;;;25.75;41.14;94557.91;4961703;28;8592;-60
2022/09/22 12:24:21;;;;;;;;;;;;;;;25.77;41.99;94557.44;4974823;28;7224;-61
2022/09/22 12:26:49;;;;;;;;;;;;;;;25.78;41.37;94554.16;4980711;28;8982;-60
2022/09/22 12:29:18;;;;;;;;;;;;;;;25.80;41.08;94556.41;4978767;28;7108;-60
2022/09/22 12:31:57;;;;;;;;;;;;;;;25.82;41.11;94553.88;4955326;28;6966;-60
2022/09/22 12:35:01;;;;;;;;;;;;;;;25.83;41.48;94547.88;4954503;28;8443;-60
2022/09/22 12:37:32;;;;;;;;;;;;;;;25.83;40.99;94547.88;5024459;28;6976;-60
2022/09/22 12:40:17;;;;;;;;;;;;;;;25.85;41.34;94547.38;5023860;28;6976;-60
2022/09/22 12:42:53;;;;;;;;;;;;;;;25.84;41.15;94538.34;5026038;28;7191;-60
2022/09/22 12:45:41;;;;;;;;;;;;;;;25.85;41.28;94534.34;5023934;28;8517;-60
2022/09/22 12:48:32;;;;;;;;;;;;;;;25.83;41.36;94539.63;5023244;28;7015;-60
2022/09/22 12:51:45;;;;;;;;;;;;;;;25.80;41.98;94537.88;4964550;28;7423;-60
2022/09/22 12:54:47;;;;;;;;;;;;;;;25.80;41.50;94534.34;4985623;28;9814;-60
2022/09/22 12:57:26;;;;;;;;;;;;;;;25.79;41.90;94533.63;4913209;29;7348;-60
2022/09/22 13:00:06;;;;;;;;;;;;;;;25.82;41.66;94542.88;4910560;29;9510;-60
2022/09/22 13:02:43;;;;;;;;;;;;;;;25.81;41.49;94531.13;4896438;29;7192;-60
2022/09/22 13:05:10;;;;;;;;;;;;;;;25.83;41.21;94533.34;4893478;29;7205;-61
2022/09/22 13:08:24;;;;;;;;;;;;;;;25.85;42.37;94528.84;4899901;29;9079;-60
2022/09/22 13:11:11;;;;;;;;;;;;;;;25.87;41.93;94529.06;4877099;29;7013;-61
2022/09/22 13:13:42;;;;;;;;;;;;;;;25.89;41.75;94520.28;4877033;29;7612;-60
2022/09/22 13:16:15;;;;;;;;;;;;;;;25.94;41.73;94528.53;4873311;29;7461;-60
2022/09/22 13:18:51;;;;;;;;;;;;;;;25.97;41.20;94529.50;4864888;29;8073;-60
2022/09/22 13:21:19;;;;;;;;;;;;;;;25.99;41.22;94527.75;4871503;29;8807;-60
2022/09/22 13:23:48;;;;;;;;;;;;;;;25.99;40.55;94533.25;4873285;29;9013;-60
2022/09/22 13:26:17;;;;;;;;;;;;;;;26.01;40.02;94524.50;4876337;29;7178;-60
2022/09/22 13:28:43;;;;;;;;;;;;;;;26.02;40.48;94521.22;4922153;29;7508;-60
2022/09/22 13:31:57;;;;;;;;;;;;;;;26.03;40.46;94514.44;4964494;28;7226;-60
2022/09/22 13:34:28;;;;;;;;;;;;;;;26.05;40.54;94520.22;4949508;28;7337;-60
2022/09/22 13:37:23;;;;;;;;;;;;;;;26.08;40.53;94513.69;4938647;28;9402;-60
2022/09/22 13:39:56;;;;;;;;;;;;;;;26.10;40.51;94507.66;4919579;29;7438;-60
2022/09/22 13:42:32;;;;;;;;;;;;;;;26.12;41.13;94505.16;4896266;29;9010;-60
2022/09/22 13:45:17;;;;;;;;;;;;;;;26.13;41.37;94510.16;4911564;29;7450;-60
2022/09/22 13:47:46;;;;;;;;;;;;;;;26.17;40.70;94502.34;4911650;29;8664;-60
2022/09/22 13:50:20;;;;;;;;;;;;;;;26.20;41.10;94503.34;4911189;29;7301;-60
2022/09/22 13:53:14;;;;;;;;;;;;;;;26.24;41.49;94494.78;4910639;29;9441;-60
2022/09/22 13:55:41;;;;;;;;;;;;;;;26.25;41.49;94499.81;4910374;29;7153;-60
2022/09/22 13:58:13;;;;;;;;;;;;;;;26.27;41.52;94504.81;4910034;29;7271;-60
2022/09/22 14:00:48;;;;;;;;;;;;;;;26.28;41.39;94498.00;4906222;29;7235;-60
2022/09/22 14:03:20;;;;;;;;;;;;;;;26.31;41.79;94494.25;4892246;29;7169;-60
2022/09/22 14:05:48;;;;;;;;;;;;;;;26.34;40.93;94493.22;4909374;29;9300;-60
2022/09/22 14:08:41;;;;;;;;;;;;;;;26.36;41.23;94494.19;4895416;29;7168;-60